createdAt,value
2019-02-05T00:01:18.662Z,66.53
2019-02-05T00:03:46.400Z,66.06
2019-02-05T00:06:14.362Z,66.59
2019-02-05T00:08:42.132Z,65.79
2019-02-05T00:11:09.888Z,65.64
2019-02-05T00:13:37.645Z,65.75
2019-02-05T00:16:05.532Z,65.95
2019-02-05T00:18:33.319Z,66.36
2019-02-05T00:21:01.274Z,65.88
2019-02-05T00:23:29.446Z,65.88
2019-02-05T00:26:05.862Z,65.97
2019-02-05T00:28:27.063Z,66.12
2019-02-05T00:30:55.124Z,65.95
2019-02-05T00:33:22.874Z,65.82
2019-02-05T00:35:50.653Z,66.54
2019-02-05T00:38:18.429Z,66.56
2019-02-05T00:40:47.456Z,66.39
2019-02-05T00:43:15.211Z,66.53
2019-02-05T00:45:42.960Z,66.22
2019-02-05T00:48:10.931Z,66.37
2019-02-05T00:50:38.888Z,66.31
2019-02-05T00:53:06.827Z,66.05
2019-02-05T00:55:34.587Z,65.98
2019-02-05T00:58:03.054Z,66.24
2019-02-05T01:00:32.497Z,66.45
2019-02-05T01:03:00.873Z,66.61
2019-02-05T01:05:29.044Z,66.97
2019-02-05T01:07:56.886Z,66.93
2019-02-05T01:10:25.881Z,67.24
2019-02-05T01:12:54.614Z,66.89
2019-02-05T01:15:23.041Z,66.55
2019-02-05T01:17:51.426Z,66.52
2019-02-05T01:20:19.643Z,66.82
2019-02-05T01:22:48.074Z,66.88
2019-02-05T01:25:16.686Z,67.30
2019-02-05T01:27:44.557Z,66.78
2019-02-05T01:30:23.811Z,67.00
2019-02-05T01:32:51.733Z,66.39
2019-02-05T01:35:19.724Z,66.45
2019-02-05T01:37:47.746Z,66.30
2019-02-05T01:40:18.288Z,65.70
2019-02-05T01:42:46.034Z,65.87
2019-02-05T01:45:16.470Z,65.57
2019-02-05T01:47:44.677Z,65.53
2019-02-05T01:50:18.927Z,66.06
2019-02-05T01:52:49.818Z,66.33
2019-02-05T01:55:18.010Z,66.18
2019-02-05T01:57:45.929Z,65.98
2019-02-05T02:00:17.954Z,65.88
2019-02-05T02:02:45.898Z,65.87
2019-02-05T02:05:14.152Z,66.20
2019-02-05T02:07:42.046Z,65.68
2019-02-05T02:10:13.986Z,65.54
2019-02-05T02:12:41.830Z,65.36
2019-02-05T02:15:10.325Z,65.87
2019-02-05T02:17:38.076Z,66.08
2019-02-05T02:20:08.800Z,65.86
2019-02-05T02:22:36.910Z,65.76
2019-02-05T02:25:05.930Z,65.67
2019-02-05T02:27:33.967Z,66.56
2019-02-05T02:30:01.954Z,65.97
2019-02-05T02:32:29.677Z,65.79
2019-02-05T02:34:57.464Z,66.20
2019-02-05T02:37:25.375Z,66.24
2019-02-05T02:39:53.295Z,66.18
2019-02-05T02:42:21.067Z,66.22
2019-02-05T02:44:48.943Z,65.98
2019-02-05T02:47:16.690Z,65.80
2019-02-05T02:49:44.563Z,65.99
2019-02-05T02:52:12.458Z,66.03
2019-02-05T02:54:40.190Z,65.66
2019-02-05T02:57:08.010Z,65.46
2019-02-05T02:59:35.924Z,65.25
2019-02-05T03:02:03.894Z,65.73
2019-02-05T03:04:31.754Z,65.69
2019-02-05T03:06:59.509Z,65.68
2019-02-05T03:09:27.252Z,65.64
2019-02-05T03:11:55.045Z,65.61
2019-02-05T03:14:22.799Z,65.00
2019-02-05T03:16:50.621Z,65.15
2019-02-05T03:19:18.922Z,64.21
2019-02-05T03:21:46.743Z,64.17
2019-02-05T03:24:14.685Z,64.28
2019-02-05T03:26:42.442Z,64.03
2019-02-05T03:29:10.344Z,63.31
2019-02-05T03:31:38.201Z,63.16
2019-02-05T03:34:05.968Z,63.03
2019-02-05T03:36:33.726Z,63.28
2019-02-05T03:39:01.470Z,63.64
2019-02-05T03:41:29.246Z,63.32
2019-02-05T03:43:57.146Z,63.59
2019-02-05T03:46:25.102Z,63.42
2019-02-05T03:48:53.728Z,63.24
2019-02-05T03:51:38.756Z,62.83
2019-02-05T03:55:14.558Z,62.94
2019-02-05T03:58:30.599Z,63.32
2019-02-05T04:01:41.566Z,63.29
2019-02-05T04:05:08.242Z,63.82
2019-02-05T04:08:31.133Z,63.99
2019-02-05T04:11:53.948Z,64.10
2019-02-05T04:15:39.260Z,63.72
2019-02-05T04:19:13.934Z,64.16
2019-02-05T04:22:18.099Z,64.19
2019-02-05T04:25:32.488Z,63.53
2019-02-05T04:28:51.813Z,63.24
2019-02-05T04:32:10.045Z,63.48
2019-02-05T04:36:02.959Z,63.18
2019-02-05T04:39:05.343Z,62.03
2019-02-05T04:42:07.429Z,61.79
2019-02-05T04:45:51.361Z,61.95
2019-02-05T04:49:38.137Z,61.88
2019-02-05T04:52:49.328Z,61.22
2019-02-05T04:56:17.278Z,61.20
2019-02-05T04:59:54.172Z,61.47
2019-02-05T05:03:24.968Z,62.30
2019-02-05T05:06:35.171Z,62.65
2019-02-05T05:09:30.515Z,62.76
2019-02-05T05:11:58.266Z,62.52
2019-02-05T05:14:26.164Z,62.26
2019-02-05T05:16:54.140Z,61.95
2019-02-05T05:19:22.607Z,62.06
2019-02-05T05:21:50.785Z,62.11
2019-02-05T05:24:18.787Z,62.71
2019-02-05T05:26:46.772Z,62.44
2019-02-05T05:29:14.695Z,62.21
2019-02-05T05:31:42.675Z,62.85
2019-02-05T05:34:10.431Z,62.49
2019-02-05T05:36:47.414Z,62.54
2019-02-05T05:39:15.237Z,62.34
2019-02-05T05:41:43.027Z,62.52
2019-02-05T05:44:10.836Z,62.70
2019-02-05T05:46:39.753Z,62.05
2019-02-05T05:49:07.659Z,62.61
2019-02-05T05:51:35.420Z,62.35
2019-02-05T05:54:03.508Z,62.47
2019-02-05T05:56:31.354Z,62.83
2019-02-05T05:58:59.100Z,62.12
2019-02-05T06:01:26.864Z,62.52
2019-02-05T06:03:54.628Z,61.96
2019-02-05T06:06:23.172Z,61.56
2019-02-05T06:08:51.412Z,62.56
2019-02-05T06:11:19.477Z,61.55
2019-02-05T06:13:47.272Z,61.43
2019-02-05T06:16:15.024Z,61.61
2019-02-05T06:18:43.000Z,61.80
2019-02-05T06:21:13.622Z,62.09
2019-02-05T06:23:40.512Z,62.13
2019-02-05T06:26:08.276Z,62.12
2019-02-05T06:28:36.388Z,62.16
2019-02-05T06:31:04.231Z,62.10
2019-02-05T06:33:32.021Z,62.03
2019-02-05T06:35:59.979Z,61.79
2019-02-05T06:38:27.875Z,61.88
2019-02-05T06:40:55.614Z,61.86
2019-02-05T06:43:23.399Z,62.55
2019-02-05T06:45:51.190Z,62.70
2019-02-05T06:48:18.971Z,62.30
2019-02-05T06:50:49.104Z,62.21
2019-02-05T06:53:16.936Z,61.80
2019-02-05T06:55:44.909Z,60.88
2019-02-05T06:58:12.771Z,60.96
2019-02-05T07:00:40.533Z,61.34
2019-02-05T07:03:08.699Z,61.38
2019-02-05T07:05:36.937Z,60.99
2019-02-05T07:08:04.764Z,60.45
2019-02-05T07:10:32.524Z,60.99
2019-02-05T07:13:00.272Z,61.09
2019-02-05T07:15:31.234Z,61.68
2019-02-05T07:18:02.048Z,62.83
2019-02-05T07:20:29.823Z,62.73
2019-02-05T07:22:57.596Z,62.11
2019-02-05T07:25:25.425Z,61.58
2019-02-05T07:27:53.177Z,61.88
2019-02-05T07:30:22.438Z,62.51
2019-02-05T07:32:50.258Z,61.45
2019-02-05T07:35:18.058Z,61.74
2019-02-05T07:37:46.258Z,61.06
2019-02-05T07:40:16.281Z,61.18
2019-02-05T07:42:44.085Z,60.90
2019-02-05T07:45:15.564Z,60.82
2019-02-05T07:47:43.432Z,60.21
2019-02-05T07:50:15.642Z,59.45
2019-02-05T07:52:43.932Z,59.37
2019-02-05T07:55:12.067Z,59.77
2019-02-05T07:57:40.158Z,59.61
2019-02-05T08:00:13.872Z,60.91
2019-02-05T08:02:41.644Z,59.57
2019-02-05T08:05:14.606Z,59.14
2019-02-05T08:07:42.468Z,58.62
2019-02-05T08:10:11.977Z,59.21
2019-02-05T08:12:39.763Z,59.09
2019-02-05T08:15:10.854Z,59.41
2019-02-05T08:17:39.057Z,58.29
2019-02-05T08:20:07.159Z,58.17
2019-02-05T08:22:35.310Z,57.29
2019-02-05T08:25:03.370Z,56.74
2019-02-05T08:27:31.120Z,56.83
2019-02-05T08:30:01.229Z,57.25
2019-02-05T08:32:29.263Z,57.81
2019-02-05T08:34:57.362Z,58.04
2019-02-05T08:37:25.144Z,57.24
2019-02-05T08:39:52.958Z,56.88
2019-02-05T08:42:20.711Z,57.37
2019-02-05T08:44:48.531Z,57.63
2019-02-05T08:47:16.307Z,56.66
2019-02-05T08:49:44.075Z,56.70
2019-02-05T08:52:11.979Z,56.19
2019-02-05T08:54:40.095Z,56.05
2019-02-05T08:57:07.903Z,55.87
2019-02-05T08:59:35.661Z,57.14
2019-02-05T09:02:03.635Z,57.09
2019-02-05T09:04:31.448Z,56.50
2019-02-05T09:06:59.187Z,56.92
2019-02-05T09:09:26.982Z,57.19
2019-02-05T09:11:54.825Z,57.78
2019-02-05T09:14:22.883Z,57.26
2019-02-05T09:16:50.693Z,57.48
2019-02-05T09:19:18.467Z,56.63
2019-02-05T09:21:46.313Z,56.88
2019-02-05T09:24:14.069Z,55.80
2019-02-05T09:26:41.855Z,56.33
2019-02-05T09:29:09.675Z,56.23
2019-02-05T09:31:37.571Z,55.21
2019-02-05T09:34:05.374Z,54.71
2019-02-05T09:36:33.196Z,54.30
2019-02-05T09:39:00.997Z,53.55
2019-02-05T09:41:28.860Z,53.13
2019-02-05T09:44:00.315Z,52.38
2019-02-05T09:46:28.128Z,53.28
2019-02-05T09:48:55.927Z,52.71
2019-02-05T09:51:24.032Z,53.00
2019-02-05T09:53:51.792Z,53.33
2019-02-05T09:56:19.578Z,53.92
2019-02-05T09:58:47.371Z,54.51
2019-02-05T10:01:15.184Z,55.13
2019-02-05T10:03:42.961Z,55.50
2019-02-05T10:06:10.777Z,57.92
2019-02-05T10:08:38.601Z,58.00
2019-02-05T10:11:06.353Z,57.39
2019-02-05T10:13:34.112Z,57.16
2019-02-05T10:16:02.003Z,59.02
2019-02-05T10:18:29.903Z,59.38
2019-02-05T10:20:57.758Z,59.72
2019-02-05T10:23:25.520Z,60.13
2019-02-05T10:25:53.286Z,59.92
2019-02-05T10:28:21.434Z,59.78
2019-02-05T10:30:49.298Z,59.79
2019-02-05T10:33:17.070Z,60.10
2019-02-05T10:35:45.110Z,59.80
2019-02-05T10:38:12.884Z,60.09
2019-02-05T10:40:40.656Z,60.11
2019-02-05T10:43:08.539Z,59.68
2019-02-05T10:45:36.903Z,59.70
2019-02-05T10:48:07.436Z,60.12
2019-02-05T10:50:35.288Z,60.94
2019-02-05T10:53:03.910Z,62.57
2019-02-05T10:55:31.830Z,63.45
2019-02-05T10:57:59.668Z,63.91
2019-02-05T11:00:29.299Z,64.83
2019-02-05T11:02:59.495Z,64.70
2019-02-05T11:05:29.407Z,65.04
2019-02-05T11:07:57.459Z,65.02
2019-02-05T11:10:25.247Z,64.53
2019-02-05T11:12:53.025Z,64.55
2019-02-05T11:15:24.047Z,64.53
2019-02-05T11:17:51.813Z,64.65
2019-02-05T11:20:22.349Z,64.33
2019-02-05T11:22:50.497Z,63.73
2019-02-05T11:25:20.898Z,63.78
2019-02-05T11:27:48.886Z,63.19
2019-02-05T11:30:38.294Z,63.00
2019-02-05T11:33:06.375Z,62.79
2019-02-05T11:35:34.254Z,63.41
2019-02-05T11:38:02.344Z,63.69
2019-02-05T11:40:32.318Z,63.35
2019-02-05T11:43:00.174Z,63.04
2019-02-05T11:45:28.379Z,63.24
2019-02-05T11:47:57.920Z,62.76
2019-02-05T11:50:25.828Z,62.44
2019-02-05T11:52:53.871Z,62.20
2019-02-05T11:55:23.758Z,61.81
2019-02-05T11:57:51.606Z,62.01
2019-02-05T12:00:32.864Z,61.61
2019-02-05T12:02:59.122Z,61.45
2019-02-05T12:05:26.929Z,60.21
2019-02-05T12:07:55.082Z,59.30
2019-02-05T12:10:22.968Z,58.34
2019-02-05T12:12:50.761Z,57.25
2019-02-05T12:15:18.878Z,55.94
2019-02-05T12:17:46.660Z,55.56
2019-02-05T12:20:14.530Z,54.88
2019-02-05T12:22:42.493Z,54.02
2019-02-05T12:25:13.505Z,52.95
2019-02-05T12:27:41.474Z,52.03
2019-02-05T12:30:17.818Z,52.58
2019-02-05T12:32:45.764Z,52.63
2019-02-05T12:35:13.657Z,52.93
2019-02-05T12:37:41.474Z,53.70
2019-02-05T12:40:10.843Z,54.91
2019-02-05T12:42:38.946Z,55.35
2019-02-05T12:45:10.707Z,55.53
2019-02-05T12:47:38.492Z,55.01
2019-02-05T12:50:14.615Z,54.78
2019-02-05T12:52:42.427Z,54.77
2019-02-05T12:55:16.254Z,53.45
2019-02-05T12:57:39.994Z,52.58
2019-02-05T13:00:15.798Z,53.77
2019-02-05T13:02:43.704Z,52.60
2019-02-05T13:05:11.989Z,51.93
2019-02-05T13:07:39.819Z,52.06
2019-02-05T13:10:10.752Z,51.29
2019-02-05T13:12:38.864Z,51.23
2019-02-05T13:15:07.447Z,52.18
2019-02-05T13:17:35.412Z,54.04
2019-02-05T13:20:06.829Z,54.27
2019-02-05T13:22:34.747Z,54.76
2019-02-05T13:25:03.463Z,55.49
2019-02-05T13:27:31.671Z,56.00
2019-02-05T13:29:59.453Z,55.90
2019-02-05T13:32:27.417Z,56.48
2019-02-05T13:34:55.539Z,55.72
2019-02-05T13:37:23.311Z,55.80
2019-02-05T13:39:51.109Z,55.98
2019-02-05T13:42:18.888Z,55.79
2019-02-05T13:44:46.906Z,55.65
2019-02-05T13:47:14.928Z,55.90
2019-02-05T13:49:42.734Z,55.45
2019-02-05T13:52:10.834Z,56.07
2019-02-05T13:54:38.602Z,56.20
2019-02-05T13:57:06.418Z,56.14
2019-02-05T13:59:34.206Z,56.49
2019-02-05T14:02:02.013Z,57.47
2019-02-05T14:04:29.827Z,57.83
2019-02-05T14:06:57.756Z,57.80
2019-02-05T14:09:25.722Z,57.90
2019-02-05T14:11:53.517Z,58.46
2019-02-05T14:14:23.104Z,59.07
2019-02-05T14:16:50.889Z,59.73
2019-02-05T14:19:18.838Z,60.65
2019-02-05T14:21:46.792Z,61.07
2019-02-05T14:24:14.627Z,61.66
2019-02-05T14:26:42.418Z,62.37
2019-02-05T14:29:12.235Z,62.15
2019-02-05T14:31:39.994Z,62.26
2019-02-05T14:34:07.770Z,62.43
2019-02-05T14:36:35.687Z,62.81
2019-02-05T14:39:08.154Z,63.24
2019-02-05T14:41:36.013Z,63.73
2019-02-05T14:44:04.596Z,63.30
2019-02-05T14:46:32.472Z,64.02
2019-02-05T14:49:00.403Z,64.05
2019-02-05T14:51:28.410Z,63.63
2019-02-05T14:53:56.674Z,63.81
2019-02-05T14:56:24.435Z,63.61
2019-02-05T14:58:52.389Z,63.69
2019-02-05T15:01:20.147Z,64.48
2019-02-05T15:03:47.914Z,65.02
2019-02-05T15:06:15.719Z,65.01
2019-02-05T15:08:43.519Z,64.58
2019-02-05T15:11:11.291Z,64.67
2019-02-05T15:13:39.229Z,64.80
2019-02-05T15:16:06.977Z,65.05
2019-02-05T15:18:34.949Z,65.52
2019-02-05T15:21:02.750Z,65.91
2019-02-05T15:23:30.520Z,65.85
2019-02-05T15:25:58.345Z,66.08
2019-02-05T15:28:26.087Z,66.18
2019-02-05T15:30:53.863Z,66.33
2019-02-05T15:33:41.409Z,66.46
2019-02-05T15:36:31.619Z,66.33
2019-02-05T15:38:59.491Z,67.94
2019-02-05T15:41:27.304Z,67.80
2019-02-05T15:43:55.046Z,67.75
2019-02-05T15:46:22.794Z,66.56
2019-02-05T15:48:50.924Z,67.70
2019-02-05T15:51:18.699Z,67.76
2019-02-05T15:53:46.731Z,68.02
2019-02-05T15:56:14.507Z,66.96
2019-02-05T15:58:42.487Z,67.02
2019-02-05T16:01:10.429Z,67.85
2019-02-05T16:03:38.172Z,67.77
2019-02-05T16:06:06.304Z,67.52
2019-02-05T16:08:34.056Z,67.85
2019-02-05T16:11:01.983Z,67.69
2019-02-05T16:13:29.930Z,67.75
2019-02-05T16:15:57.903Z,68.35
2019-02-05T16:18:25.722Z,68.46
2019-02-05T16:20:53.712Z,68.63
2019-02-05T16:23:21.705Z,69.19
2019-02-05T16:25:49.658Z,69.18
2019-02-05T16:28:17.488Z,68.93
2019-02-05T16:30:45.422Z,69.39
2019-02-05T16:33:13.220Z,69.83
2019-02-05T16:35:41.119Z,70.13
2019-02-05T16:38:09.018Z,70.07
2019-02-05T16:40:37.283Z,70.51
2019-02-05T16:43:05.344Z,69.81
2019-02-05T16:45:33.175Z,70.22
2019-02-05T16:48:00.977Z,70.56
2019-02-05T16:50:32.703Z,70.13
2019-02-05T16:53:00.496Z,70.27
2019-02-05T16:55:28.838Z,70.00
2019-02-05T16:57:56.656Z,70.33
2019-02-05T17:00:30.284Z,70.46
2019-02-05T17:02:58.206Z,70.89
2019-02-05T17:05:27.691Z,71.25
2019-02-05T17:07:55.687Z,71.62
2019-02-05T17:10:23.830Z,71.38
2019-02-05T17:12:51.908Z,71.48
2019-02-05T17:15:19.759Z,72.14
2019-02-05T17:17:47.501Z,72.32
2019-02-05T17:20:21.875Z,72.77
2019-02-05T17:22:50.366Z,72.80
2019-02-05T17:25:19.401Z,73.38
2019-02-05T17:27:47.825Z,73.15
2019-02-05T17:30:24.782Z,73.37
2019-02-05T17:32:52.545Z,73.19
2019-02-05T17:35:20.373Z,72.89
2019-02-05T17:37:49.619Z,72.99
2019-02-05T17:40:19.641Z,73.24
2019-02-05T17:42:48.007Z,73.09
2019-02-05T17:45:21.813Z,73.09
2019-02-05T17:47:50.131Z,73.33
2019-02-05T17:50:18.053Z,73.51
2019-02-05T17:52:45.920Z,73.95
2019-02-05T17:55:14.187Z,73.73
2019-02-05T17:57:42.065Z,73.75
2019-02-05T18:00:28.807Z,73.75
2019-02-05T18:02:56.615Z,73.78
2019-02-05T18:05:24.541Z,73.30
2019-02-05T18:07:52.738Z,73.80
2019-02-05T18:10:23.913Z,73.54
2019-02-05T18:12:51.777Z,73.66
2019-02-05T18:15:23.371Z,73.68
2019-02-05T18:17:51.605Z,73.51
2019-02-05T18:20:19.416Z,73.80
2019-02-05T18:22:47.215Z,73.79
2019-02-05T18:25:16.234Z,73.51
2019-02-05T18:27:44.140Z,73.39
2019-02-05T18:30:21.836Z,73.82
2019-02-05T18:32:49.720Z,73.75
2019-02-05T18:35:17.516Z,73.73
2019-02-05T18:37:46.618Z,73.94
2019-02-05T18:40:16.023Z,74.12
2019-02-05T18:42:43.775Z,74.43
2019-02-05T18:45:13.804Z,74.51
2019-02-05T18:47:41.537Z,74.31
2019-02-05T18:50:12.988Z,74.33
2019-02-05T18:52:41.219Z,74.34
2019-02-05T18:55:10.634Z,74.58
2019-02-05T18:57:38.672Z,74.87
2019-02-05T19:00:16.020Z,74.97
2019-02-05T19:02:43.869Z,75.33
2019-02-05T19:05:12.040Z,75.59
2019-02-05T19:07:40.172Z,75.96
2019-02-05T19:10:10.831Z,76.61
2019-02-05T19:12:38.599Z,77.18
2019-02-05T19:15:13.245Z,77.21
2019-02-05T19:17:41.055Z,77.59
2019-02-05T19:20:09.068Z,78.20
2019-02-05T19:22:37.243Z,78.55
2019-02-05T19:25:25.595Z,78.88
2019-02-05T19:27:53.391Z,78.96
2019-02-05T19:30:23.372Z,79.47
2019-02-05T19:32:51.148Z,79.76
2019-02-05T19:35:19.235Z,79.95
2019-02-05T19:37:47.173Z,80.24
2019-02-05T19:40:15.277Z,80.57
2019-02-05T19:42:43.065Z,80.80
2019-02-05T19:45:39.503Z,80.97
2019-02-05T19:48:11.327Z,81.11
2019-02-05T19:50:39.151Z,81.23
2019-02-05T19:53:06.918Z,81.41
2019-02-05T19:55:34.828Z,81.67
2019-02-05T19:58:02.585Z,81.87
2019-02-05T20:00:30.370Z,81.45
2019-02-05T20:02:58.146Z,81.56
2019-02-05T20:05:26.021Z,81.61
2019-02-05T20:07:53.843Z,81.48
2019-02-05T20:10:21.751Z,81.59
2019-02-05T20:12:49.556Z,81.47
2019-02-05T20:15:19.623Z,81.41
2019-02-05T20:17:47.322Z,81.11
2019-02-05T20:20:15.322Z,80.59
2019-02-05T20:22:43.254Z,80.04
2019-02-05T20:25:12.426Z,79.37
2019-02-05T20:27:40.278Z,78.85
2019-02-05T20:30:11.719Z,78.82
2019-02-05T20:32:39.540Z,78.57
2019-02-05T20:35:07.596Z,78.39
2019-02-05T20:37:36.328Z,78.16
2019-02-05T20:40:10.641Z,77.75
2019-02-05T20:42:38.420Z,77.34
2019-02-05T20:45:07.394Z,77.21
2019-02-05T20:47:35.123Z,76.99
2019-02-05T20:50:04.976Z,76.96
2019-02-05T20:52:32.746Z,77.28
2019-02-05T20:55:00.587Z,77.00
2019-02-05T20:57:28.396Z,76.81
2019-02-05T20:59:56.300Z,76.78
2019-02-05T21:02:24.081Z,76.69
2019-02-05T21:04:51.950Z,76.60
2019-02-05T21:07:19.752Z,76.55
2019-02-05T21:09:47.566Z,76.41
2019-02-05T21:12:15.338Z,76.38
2019-02-05T21:14:43.154Z,76.33
2019-02-05T21:17:11.278Z,76.26
2019-02-05T21:19:39.070Z,75.99
2019-02-05T21:22:08.889Z,76.09
2019-02-05T21:24:36.663Z,76.08
2019-02-05T21:27:04.475Z,75.85
2019-02-05T21:29:32.271Z,75.94
2019-02-05T21:32:00.089Z,76.03
2019-02-05T21:34:27.935Z,75.97
2019-02-05T21:36:55.719Z,75.90
2019-02-05T21:39:23.492Z,75.93
2019-02-05T21:41:54.034Z,75.80
2019-02-05T21:44:21.785Z,75.67
2019-02-05T21:46:49.575Z,75.66
2019-02-05T21:49:17.336Z,75.73
2019-02-05T21:51:45.457Z,75.39
2019-02-05T21:54:13.271Z,75.81
2019-02-05T21:56:41.180Z,76.11
2019-02-05T21:59:08.982Z,76.05
2019-02-05T22:01:36.782Z,75.72
2019-02-05T22:04:04.716Z,75.59
2019-02-05T22:06:32.778Z,75.69
2019-02-05T22:09:00.622Z,75.66
2019-02-05T22:11:28.821Z,75.41
2019-02-05T22:13:56.680Z,75.64
2019-02-05T22:16:24.485Z,75.53
2019-02-05T22:18:52.248Z,75.64
2019-02-05T22:21:20.280Z,76.12
2019-02-05T22:23:48.040Z,76.81
2019-02-05T22:26:15.782Z,76.78
2019-02-05T22:28:43.573Z,77.34
2019-02-05T22:31:11.357Z,77.59
2019-02-05T22:33:39.175Z,77.79
2019-02-05T22:36:07.334Z,77.96
2019-02-05T22:38:36.486Z,77.68
2019-02-05T22:41:04.336Z,77.62
2019-02-05T22:43:32.110Z,77.09
2019-02-05T22:46:00.023Z,76.95
2019-02-05T22:48:28.089Z,77.00
2019-02-05T22:50:55.890Z,77.00
2019-02-05T22:53:23.946Z,77.02
2019-02-05T22:55:51.713Z,77.12
2019-02-05T22:58:20.104Z,76.99
2019-02-05T23:01:28.275Z,76.89
2019-02-05T23:04:19.723Z,76.99
2019-02-05T23:07:06.551Z,76.78
2019-02-05T23:09:52.861Z,76.23
2019-02-05T23:12:52.572Z,76.26
2019-02-05T23:15:23.152Z,76.19
2019-02-05T23:17:50.953Z,76.29
2019-02-05T23:20:21.171Z,76.09
2019-02-05T23:22:49.489Z,75.78
2019-02-05T23:25:17.317Z,75.83
2019-02-05T23:27:45.229Z,75.65
2019-02-05T23:30:22.629Z,75.93
2019-02-05T23:32:50.435Z,75.98
2019-02-05T23:35:18.317Z,75.85
2019-02-05T23:37:46.399Z,76.28
2019-02-05T23:40:14.529Z,75.42
2019-02-05T23:42:42.293Z,76.05
2019-02-05T23:45:10.765Z,76.80
2019-02-05T23:47:38.738Z,76.55
2019-02-05T23:50:10.031Z,76.21
2019-02-05T23:52:37.967Z,76.30
2019-02-05T23:55:08.302Z,77.05
2019-02-05T23:57:36.075Z,76.59
